sim
Sign-in with your pilot id or email,
or register
Callsign
Passwort

Schedule Details

Flight Number: DLH2287
Departure: Brussels Airport (EBBR) at 11:45
Arrival: Munich Airport (EDDM) at 13:00
Route: Lufthansa Passenger Schedule. Enter filed route here before submitting Pirep.

Weather Information
Getting current METAR information for EBBR 291620Z 22005KT 9999 FEW010 SCT014 BKN027 17/15 Q1016 TEMPO SCT006 BKN010
Getting current METAR information for EDDM 291620Z 27008KT 9999 BKN020 12/09 Q1019 NOSIG

Schedule Frequency

Route Map